Map

Track Data

SID SEASON NUMBER BASIN SUBBASIN NAME ISO_TIME NATURE LAT LON WMO_WIND WMO_PRES WMO_AGENCY TRACK_TYPE DIST2LAND LANDFALL IFLAG USA_AGENCY USA_ATCF_ID USA_LAT USA_LON USA_RECORD USA_STATUS USA_WIND USA_PRES USA_SSHS USA_R34_NE USA_R34_SE USA_R34_SW USA_R34_NW USA_R50_NE USA_R50_SE USA_R50_SW USA_R50_NW USA_R64_NE USA_R64_SE USA_R64_SW USA_R64_NW USA_POCI USA_ROCI USA_RMW USA_EYE TOKYO_LAT TOKYO_LON TOKYO_GRADE TOKYO_WIND TOKYO_PRES TOKYO_R50_DIR TOKYO_R50_LONG TOKYO_R50_SHORT TOKYO_R30_DIR TOKYO_R30_LONG TOKYO_R30_SHORT TOKYO_LAND CMA_LAT CMA_LON CMA_CAT CMA_WIND CMA_PRES HKO_LAT HKO_LON HKO_CAT HKO_WIND HKO_PRES NEWDELHI_LAT NEWDELHI_LON NEWDELHI_GRADE NEWDELHI_WIND NEWDELHI_PRES NEWDELHI_CI NEWDELHI_DP NEWDELHI_POCI REUNION_LAT REUNION_LON REUNION_TYPE REUNION_WIND REUNION_PRES REUNION_TNUM REUNION_CI REUNION_RMW REUNION_R34_NE REUNION_R34_SE REUNION_R34_SW REUNION_R34_NW REUNION_R50_NE REUNION_R50_SE REUNION_R50_SW REUNION_R50_NW REUNION_R64_NE REUNION_R64_SE REUNION_R64_SW REUNION_R64_NW BOM_LAT BOM_LON BOM_TYPE BOM_WIND BOM_PRES BOM_TNUM BOM_CI BOM_RMW BOM_R34_NE BOM_R34_SE BOM_R34_SW BOM_R34_NW BOM_R50_NE BOM_R50_SE BOM_R50_SW BOM_R50_NW BOM_R64_NE BOM_R64_SE BOM_R64_SW BOM_R64_NW BOM_ROCI BOM_POCI BOM_EYE BOM_POS_METHOD BOM_PRES_METHOD NADI_LAT NADI_LON NADI_CAT NADI_WIND NADI_PRES WELLINGTON_LAT WELLINGTON_LON WELLINGTON_WIND WELLINGTON_PRES DS824_LAT DS824_LON DS824_STAGE DS824_WIND DS824_PRES TD9636_LAT TD9636_LON TD9636_STAGE TD9636_WIND TD9636_PRES TD9635_LAT TD9635_LON TD9635_WIND TD9635_PRES TD9635_ROCI NEUMANN_LAT NEUMANN_LON NEUMANN_CLASS NEUMANN_WIND NEUMANN_PRES MLC_LAT MLC_LON MLC_CLASS MLC_WIND MLC_PRES USA_GUST BOM_GUST BOM_GUST_PER REUNION_GUST REUNION_GUST_PER USA_SEAHGT USA_SEARAD_NE USA_SEARAD_SE USA_SEARAD_SW USA_SEARAD_NW STORM_SPEED STORM_DIR
1882052S16079 1882 11 SI MM NOT_NAMED 1882-02-21 06:00:00 NR -15.8000 79.3000 reunion main 2326 2316 _____O________ -1 -15.8000 79.3000 99 9.90000 2 265
1882052S16079 1882 11 SI MM NOT_NAMED 1882-02-21 09:00:00 NR -15.8074 79.2119 main 2316 2305 _____P________ -1 -15.8074 79.2119 99 2 264
1882052S16079 1882 11 SI MM NOT_NAMED 1882-02-21 12:00:00 NR -15.8201 79.1108 main 2305 2295 _____P________ -1 -15.8201 79.1108 99 2 261
1882052S16079 1882 11 SI MM NOT_NAMED 1882-02-21 15:00:00 NR -15.8434 78.9837 main 2295 2282 _____P________ -1 -15.8434 78.9837 99 2 251
1882052S16079 1882 11 SI MM NOT_NAMED 1882-02-21 18:00:00 NR -15.8860 78.9142 main 2282 2258 _____P____O___ -1 -15.8825 78.8177 99 -15.9000 79.3000 7 3 246
1882052S16079 1882 11 SI MM NOT_NAMED 1882-02-21 21:00:00 NR -15.9554 78.7242 main 2258 2237 _____P____P___ -1 -15.9426 78.5996 99 -15.9809 78.9734 7 5 250
1882052S16079 1882 11 SI MM NOT_NAMED 1882-02-22 00:00:00 NR -16.0463 78.4453 main 2227 2190 _____P____P___ -1 -16.0289 78.3162 99 -16.0694 78.6173 7 7 252
1882052S16079 1882 11 SI MM NOT_NAMED 1882-02-22 03:00:00 NR -16.1598 78.0784 main 2190 2136 _____P____P___ -1 -16.1464 77.9542 99 -16.1732 78.2027 7 9 253
1882052S16079 1882 11 SI MM NOT_NAMED 1882-02-22 06:00:00 NR -16.3000 77.6000 reunion main 2136 2079 _____O____O___ -1 -16.3000 77.5000 99 9.90000 -16.3000 77.7000 7 11 253
1882052S16079 1882 11 SI MM NOT_NAMED 1882-02-22 09:00:00 NR -16.4739 77.0193 main 2068 2001 _____P____P___ -1 -16.4922 76.9467 99 -16.4557 77.0918 7 12 252
1882052S16079 1882 11 SI MM NOT_NAMED 1882-02-22 12:00:00 NR -16.6788 76.3621 main 2001 1923 _____P____P___ -1 -16.7167 76.3144 99 -16.6409 76.4098 7 14 251
1882052S16079 1882 11 SI MM NOT_NAMED 1882-02-22 15:00:00 NR -16.9104 75.6640 main 1923 1845 _____P____P___ -1 -16.9652 75.6302 99 -16.8556 75.6978 7 14 250
1882052S16079 1882 11 SI MM NOT_NAMED 1882-02-22 18:00:00 NR -17.1649 74.9608 main 1843 1765 _____P____O___ -1 -17.2298 74.9215 99 -17.1000 75.0000 7 14 248
1882052S16079 1882 11 SI MM NOT_NAMED 1882-02-22 21:00:00 NR -17.4473 74.2612 main 1765 1685 _____P____P___ -1 -17.5027 74.2161 99 -17.3918 74.3064 7 14 246
1882052S16079 1882 11 SI MM NOT_NAMED 1882-02-23 00:00:00 NR -17.7423 73.5930 main 1685 1616 _____P____P___ -1 -17.7766 73.5419 99 -17.7081 73.6441 7 13 244
1882052S16079 1882 11 SI MM NOT_NAMED 1882-02-23 03:00:00 NR -18.0324 72.9933 main 1616 1558 _____P____P___ -1 -18.0445 72.9271 99 -18.0202 73.0595 7 12 242
1882052S16079 1882 11 SI MM NOT_NAMED 1882-02-23 06:00:00 NR -18.3000 72.5000 reunion main 1558 1523 _____O____O___ -1 -18.3000 72.4000 99 9.90000 -18.3000 72.6000 7 9 240
1882052S16079 1882 11 SI MM NOT_NAMED 1882-02-23 09:00:00 NR -18.4864 72.1750 main 1523 1500 _____P____P___ -1 -18.4754 72.0266 99 -18.4975 72.3234 7 6 236
1882052S16079 1882 11 SI MM NOT_NAMED 1882-02-23 12:00:00 NR -18.6510 71.9506 main 1498 1476 _____P____P___ -1 -18.6385 71.7302 99 -18.6636 72.1709 7 5 228
1882052S16079 1882 11 SI MM NOT_NAMED 1882-02-23 15:00:00 NR -18.8110 71.7928 main 1476 1462 _____P____P___ -1 -18.7991 71.5025 99 -18.8229 72.0830 7 4 219
1882052S16079 1882 11 SI MM NOT_NAMED 1882-02-23 18:00:00 NR -18.9834 71.6675 main 1462 1438 _____P____O___ -1 -18.9668 71.3351 99 -19.0000 72.0000 7 4 216
1882052S16079 1882 11 SI MM NOT_NAMED 1882-02-23 21:00:00 NR -19.1696 71.5117 main 1438 1425 _____P____P___ -1 -19.1513 71.2195 99 -19.1880 71.8039 7 5 215
1882052S16079 1882 11 SI MM NOT_NAMED 1882-02-24 00:00:00 NR -19.3824 71.3764 main 1425 1412 _____P____P___ -1 -19.3620 71.1474 99 -19.4027 71.6053 7 5 206
1882052S16079 1882 11 SI MM NOT_NAMED 1882-02-24 03:00:00 NR -19.6373 71.2697 main 1412 1399 _____P____P___ -1 -19.6085 71.1104 99 -19.6661 71.4291 7 6 197
1882052S16079 1882 11 SI MM NOT_NAMED 1882-02-24 06:00:00 NR -19.9500 71.2000 reunion main 1399 1396 _____O____O___ -1 -19.9000 71.1000 99 9.90000 -20.0000 71.3000 7 8 189
1882052S16079 1882 11 SI MM NOT_NAMED 1882-02-24 09:00:00 NR -20.3744 71.1487 main 1386 1385 _____P____P___ -1 -20.3086 71.0641 99 -20.4402 71.2334 7 9 184
1882052S16079 1882 11 SI MM NOT_NAMED 1882-02-24 12:00:00 NR -20.8572 71.1405 main 1385 1385 _____P____P___ -1 -20.7670 71.0635 99 -20.9474 71.2174 7 10 179
1882052S16079 1882 11 SI MM NOT_NAMED 1882-02-24 15:00:00 NR -21.3695 71.1678 main 1397 1397 _____P____P___ -1 -21.2581 71.0928 99 -21.4809 71.2428 7 10 176
1882052S16079 1882 11 SI MM NOT_NAMED 1882-02-24 18:00:00 NR -21.8823 71.2234 main 1400 1400 _____P____O___ -1 -21.7647 71.1468 99 -22.0000 71.3000 7 10 173
1882052S16079 1882 11 SI MM NOT_NAMED 1882-02-24 21:00:00 NR -22.3713 71.3001 main 1416 1416 _____P____P___ -1 -22.2694 71.2201 99 -22.4732 71.3801 7 10 171
1882052S16079 1882 11 SI MM NOT_NAMED 1882-02-25 00:00:00 NR -22.8193 71.3799 main 1433 1433 _____P____P___ -1 -22.7550 71.3071 99 -22.9050 71.4770 7 9 170
1882052S16079 1882 11 SI MM NOT_NAMED 1882-02-25 03:00:00 NR -23.2393 71.4634 main 1450 1450 _____P____P___ -1 -23.2043 71.4023 99 -23.3094 71.5854 7 8 169
1882052S16079 1882 11 SI MM NOT_NAMED 1882-02-25 06:00:00 NR -23.6200 71.5400 reunion main 1459 1459 _____O____O___ -1 -23.6000 71.5000 99 9.90000 -23.7000 71.7000 7 7 170
1882052S16079 1882 11 SI MM NOT_NAMED 1882-02-25 09:00:00 NR -23.9294 71.5953 main 1476 1476 _____P________ -1 -23.9294 71.5953 99 7 6 166
1882052S16079 1882 11 SI MM NOT_NAMED 1882-02-25 12:00:00 NR -24.1970 71.6876 main 1494 1494 _____P________ -1 -24.1970 71.6876 99 7 5 161
1882052S16079 1882 11 SI MM NOT_NAMED 1882-02-25 15:00:00 NR -24.4116 71.7772 main 1509 1509 _____P________ -1 -24.4116 71.7772 99 7 4 157
1882052S16079 1882 11 SI MM NOT_NAMED 1882-02-25 18:00:00 NR -24.5822 71.8645 main 1525 1525 _____P________ -1 -24.5822 71.8645 99 3 152
1882052S16079 1882 11 SI MM NOT_NAMED 1882-02-25 21:00:00 NR -24.7175 71.9500 main 1528 1528 _____P________ -1 -24.7175 71.9500 99 3 148
1882052S16079 1882 11 SI MM NOT_NAMED 1882-02-26 00:00:00 NR -24.8264 72.0340 main 1540 1540 _____P________ -1 -24.8264 72.0340 99 3 142
1882052S16079 1882 11 SI MM NOT_NAMED 1882-02-26 03:00:00 NR -24.9176 72.1172 main 1553 1553 _____P________ -1 -24.9176 72.1172 99 2 140
1882052S16079 1882 11 SI MM NOT_NAMED 1882-02-26 06:00:00 NR -25.0000 72.2000 reunion main 1566 _____O________ -1 -25.0000 72.2000 99 9.90000 2 137

About IBTrACS Database

This database is a web-friendly format of International Best Track Archive for Climate Stewardship (IBTrACS), a global best track data archive curated by NOAA dating back to 1842.

Updated: 2021-12-03